Altoona, Wisconsin
Current Conditions -  °F | °C
As of 10:56 AM on Monday 24 Nov 2014 (Local Time) from KEAU Reporting Station
Light Snow Light Snow  
Wind Chill: 16°   Ceiling: 1300
Heat Index: 28°   Visibility: 0.75mi
Dew Point: 25°   Wind: 16mph
Humidity: 88%   Direction: 290°WNW
Pressure: 29.29"   Gusts: NA
Location:  44.81°N, 91.43°W
Report Text: KEAU 241656Z 29014KT 3/4SM -SN BR FEW010 OVC013 M02/M04 A2929 RMK AO2 SLP928 P0000 T10221039
Loading
Personal Weather Stations






























Interactive Weather Map New forecast layout! Learn more

10-Day Weather Forecast

Advertisements
Track Severe Weather on mobile